Time,TemperatureF,DewpointF,PressureIn,WindDirection,WindDirectionDegrees,WindSpeedMPH,WindSpeedGustMPH,Humidity,HourlyPrecipIn,Conditions,Clouds,dailyrainin,SoftwareType,DateUTC
2014-01-02 00:34:00,65.6,25.7,30.13,East,90,1.0,-999.0,22,0.00,,,0.00,Wunderground v.1.15,2014-01-02 08:34:00,
2014-01-02 00:39:00,65.6,25.7,30.13,East,90,1.0,-999.0,22,0.00,,,0.00,Wunderground v.1.15,2014-01-02 08:39:00,
2014-01-02 00:44:00,65.6,25.7,30.13,East,90,1.0,-999.0,22,0.00,,,0.00,Wunderground v.1.15,2014-01-02 08:44:00,
2014-01-02 00:49:00,61.7,26.4,30.13,NNW,338,0.0,-999.0,26,0.00,,,0.00,Wunderground v.1.15,2014-01-02 08:49:00,
2014-01-02 00:54:00,61.7,26.4,30.13,NNW,338,0.0,-999.0,26,0.00,,,0.00,Wunderground v.1.15,2014-01-02 08:54:00,
2014-01-02 00:59:00,61.7,26.4,30.13,NNW,338,0.0,-999.0,26,0.00,,,0.00,Wunderground v.1.15,2014-01-02 08:59:00,
2014-01-02 01:04:00,61.7,26.4,30.13,NNW,338,0.0,-999.0,26,0.00,,,0.00,Wunderground v.1.15,2014-01-02 09:04:00,
2014-01-02 01:09:00,61.7,26.4,30.13,NNW,338,0.0,-999.0,26,0.00,,,0.00,Wunderground v.1.15,2014-01-02 09:09:00,
2014-01-02 01:14:00,61.7,26.4,30.13,NNW,338,0.0,-999.0,26,0.00,,,0.00,Wunderground v.1.15,2014-01-02 09:14:00,
2014-01-02 01:19:00,61.6,26.3,30.13,East,90,0.0,-999.0,26,0.00,,,0.00,Wunderground v.1.15,2014-01-02 09:19:00,
2014-01-02 01:24:00,61.6,26.3,30.13,East,90,0.0,-999.0,26,0.00,,,0.00,Wunderground v.1.15,2014-01-02 09:24:00,
2014-01-02 01:29:00,61.6,26.3,30.13,East,90,0.0,-999.0,26,0.00,,,0.00,Wunderground v.1.15,2014-01-02 09:29:00,
2014-01-02 01:34:00,61.6,26.3,30.13,East,90,0.0,-999.0,26,0.00,,,0.00,Wunderground v.1.15,2014-01-02 09:34:00,
2014-01-02 01:39:00,61.6,26.3,30.13,East,90,0.0,-999.0,26,0.00,,,0.00,Wunderground v.1.15,2014-01-02 09:39:00,
2014-01-02 01:44:00,61.6,26.3,30.13,East,90,0.0,-999.0,26,0.00,,,0.00,Wunderground v.1.15,2014-01-02 09:44:00,
2014-01-02 01:49:00,60.9,26.7,30.13,ENE,68,0.0,-999.0,27,0.00,,,0.00,Wunderground v.1.15,2014-01-02 09:49:00,
2014-01-02 01:54:00,60.9,26.7,30.13,ENE,68,0.0,-999.0,27,0.00,,,0.00,Wunderground v.1.15,2014-01-02 09:54:00,
2014-01-02 01:59:00,60.9,26.7,30.13,ENE,68,0.0,-999.0,27,0.00,,,0.00,Wunderground v.1.15,2014-01-02 09:59:00,
2014-01-02 02:04:00,60.9,26.7,30.13,ENE,68,0.0,-999.0,27,0.00,,,0.00,Wunderground v.1.15,2014-01-02 10:04:00,
2014-01-02 02:09:00,60.9,26.7,30.13,ENE,68,0.0,-999.0,27,0.00,,,0.00,Wunderground v.1.15,2014-01-02 10:09:00,
2014-01-02 02:14:00,60.9,26.7,30.13,ENE,68,0.0,-999.0,27,0.00,,,0.00,Wunderground v.1.15,2014-01-02 10:14:00,
2014-01-02 02:19:00,60.9,26.7,30.13,NNE,23,0.0,-999.0,27,0.00,,,0.00,Wunderground v.1.15,2014-01-02 10:19:00,
2014-01-02 02:24:00,60.9,26.7,30.13,NNE,23,0.0,-999.0,27,0.00,,,0.00,Wunderground v.1.15,2014-01-02 10:24:00,
2014-01-02 02:29:00,60.9,26.7,30.13,NNE,23,0.0,-999.0,27,0.00,,,0.00,Wunderground v.1.15,2014-01-02 10:29:00,
2014-01-02 02:34:00,60.9,26.7,30.13,NNE,23,0.0,-999.0,27,0.00,,,0.00,Wunderground v.1.15,2014-01-02 10:34:00,
2014-01-02 02:39:00,60.9,26.7,30.13,NNE,23,0.0,-999.0,27,0.00,,,0.00,Wunderground v.1.15,2014-01-02 10:39:00,
2014-01-02 02:44:00,60.9,26.7,30.13,NNE,23,0.0,-999.0,27,0.00,,,0.00,Wunderground v.1.15,2014-01-02 10:44:00,
2014-01-02 02:49:00,59.2,26.1,30.12,NNE,23,0.0,-999.0,28,0.00,,,0.00,Wunderground v.1.15,2014-01-02 10:49:00,
2014-01-02 02:54:00,59.2,26.1,30.12,NNE,23,0.0,-999.0,28,0.00,,,0.00,Wunderground v.1.15,2014-01-02 10:54:00,
2014-01-02 02:59:00,59.2,26.1,30.12,NNE,23,0.0,-999.0,28,0.00,,,0.00,Wunderground v.1.15,2014-01-02 10:59:00,
2014-01-02 03:04:00,59.2,26.1,30.12,NNE,23,0.0,-999.0,28,0.00,,,0.00,Wunderground v.1.15,2014-01-02 11:04:00,
2014-01-02 03:09:00,59.2,26.1,30.12,NNE,23,0.0,-999.0,28,0.00,,,0.00,Wunderground v.1.15,2014-01-02 11:09:00,
2014-01-02 03:14:00,59.2,26.1,30.12,NNE,23,0.0,-999.0,28,0.00,,,0.00,Wunderground v.1.15,2014-01-02 11:14:00,
2014-01-02 03:19:00,62.5,26.2,30.11,ENE,68,0.0,-999.0,25,0.00,,,0.00,Wunderground v.1.15,2014-01-02 11:19:00,
2014-01-02 03:24:00,62.5,26.2,30.11,ENE,68,0.0,-999.0,25,0.00,,,0.00,Wunderground v.1.15,2014-01-02 11:24:00,
2014-01-02 03:29:00,62.5,26.2,30.11,ENE,68,0.0,-999.0,25,0.00,,,0.00,Wunderground v.1.15,2014-01-02 11:29:00,
2014-01-02 03:34:00,62.5,26.2,30.11,ENE,68,0.0,-999.0,25,0.00,,,0.00,Wunderground v.1.15,2014-01-02 11:34:00,
2014-01-02 03:39:00,62.5,26.2,30.11,ENE,68,0.0,-999.0,25,0.00,,,0.00,Wunderground v.1.15,2014-01-02 11:39:00,
2014-01-02 03:44:00,62.5,26.2,30.11,ENE,68,0.0,-999.0,25,0.00,,,0.00,Wunderground v.1.15,2014-01-02 11:44:00,
2014-01-02 03:49:00,63.1,24.7,30.11,ENE,68,1.0,-999.0,23,0.00,,,0.00,Wunderground v.1.15,2014-01-02 11:49:00,
2014-01-02 03:54:00,63.1,24.7,30.11,ENE,68,1.0,-999.0,23,0.00,,,0.00,Wunderground v.1.15,2014-01-02 11:54:00,
2014-01-02 03:59:00,63.1,24.7,30.11,ENE,68,1.0,-999.0,23,0.00,,,0.00,Wunderground v.1.15,2014-01-02 11:59:00,
2014-01-02 04:04:00,63.1,24.7,30.11,ENE,68,1.0,-999.0,23,0.00,,,0.00,Wunderground v.1.15,2014-01-02 12:04:00,
2014-01-02 04:09:00,63.1,24.7,30.11,ENE,68,1.0,-999.0,23,0.00,,,0.00,Wunderground v.1.15,2014-01-02 12:09:00,
2014-01-02 04:14:00,63.1,24.7,30.11,ENE,68,1.0,-999.0,23,0.00,,,0.00,Wunderground v.1.15,2014-01-02 12:14:00,
2014-01-02 04:19:00,62.2,24.9,30.11,East,90,1.0,-999.0,24,0.00,,,0.00,Wunderground v.1.15,2014-01-02 12:19:00,
2014-01-02 04:24:00,62.2,24.9,30.11,East,90,1.0,-999.0,24,0.00,,,0.00,Wunderground v.1.15,2014-01-02 12:24:00,
2014-01-02 04:34:00,62.2,24.9,30.11,East,90,1.0,-999.0,24,0.00,,,0.00,Wunderground v.1.15,2014-01-02 12:34:00,
2014-01-02 04:39:00,62.0,24.8,30.11,West,264,0.0,1.0,24,0.00,,,0.00,Wunderground v.1.15,2014-01-02 12:39:00,
2014-01-02 04:44:00,61.6,25.4,30.11,West,262,0.0,0.0,25,0.00,,,0.00,Wunderground v.1.15,2014-01-02 12:44:00,
2014-01-02 04:49:00,60.8,25.7,30.11,East,86,0.0,0.0,26,0.00,,,0.00,Wunderground v.1.15,2014-01-02 12:49:00,
2014-01-02 04:54:00,60.2,26.1,30.11,NW,326,0.0,0.0,27,0.00,,,0.00,Wunderground v.1.15,2014-01-02 12:54:00,
2014-01-02 04:59:00,60.4,25.3,30.11,NNW,345,0.0,3.0,26,0.00,,,0.00,Wunderground v.1.15,2014-01-02 12:59:00,
2014-01-02 05:05:00,60.9,24.8,30.11,NNE,15,1.0,2.0,25,0.00,,,0.00,Wunderground v.1.15,2014-01-02 13:05:00,
2014-01-02 05:10:00,61.1,25.0,30.11,SE,135,0.0,0.0,25,0.00,,,0.00,Wunderground v.1.15,2014-01-02 13:10:00,
2014-01-02 05:15:00,60.9,24.8,30.11,NNE,23,0.0,1.0,25,0.00,,,0.00,Wunderground v.1.15,2014-01-02 13:15:00,
2014-01-02 05:20:00,61.2,25.1,30.11,SSW,201,0.0,0.0,25,0.00,,,0.00,Wunderground v.1.15,2014-01-02 13:20:00,
2014-01-02 05:25:00,61.6,24.4,30.10,NE,43,1.0,2.0,24,0.00,,,0.00,Wunderground v.1.15,2014-01-02 13:25:00,
2014-01-02 05:31:00,62.2,24.9,30.10,NW,324,1.0,9.0,24,0.00,,,0.00,Wunderground v.1.15,2014-01-02 13:31:00,
2014-01-02 05:36:00,62.6,24.2,30.10,East,91,1.0,9.0,23,0.00,,,0.00,Wunderground v.1.15,2014-01-02 13:36:00,
2014-01-02 05:41:00,62.5,25.2,30.10,North,354,1.0,9.0,24,0.00,,,0.00,Wunderground v.1.15,2014-01-02 13:41:00,
2014-01-02 05:46:00,62.8,24.4,30.10,East,87,1.0,9.0,23,0.00,,,0.00,Wunderground v.1.15,2014-01-02 13:46:00,
2014-01-02 05:51:00,62.8,24.4,30.10,West,259,1.0,9.0,23,0.00,,,0.00,Wunderground v.1.15,2014-01-02 13:51:00,
2014-01-02 05:57:00,62.2,24.9,30.10,East,96,0.0,9.0,24,0.00,,,0.00,Wunderground v.1.15,2014-01-02 13:57:00,
2014-01-02 06:02:00,61.9,24.7,30.10,NW,321,0.0,1.0,24,0.00,,,0.00,Wunderground v.1.15,2014-01-02 14:02:00,
2014-01-02 06:07:00,61.5,24.3,30.10,NW,309,0.0,1.0,24,0.00,,,0.00,Wunderground v.1.15,2014-01-02 14:07:00,
2014-01-02 06:12:00,61.2,25.1,30.10,ENE,64,0.0,0.0,25,0.00,,,0.00,Wunderground v.1.15,2014-01-02 14:12:00,
2014-01-02 06:17:00,60.8,25.7,30.11,WNW,303,0.0,2.0,26,0.00,,,0.00,Wunderground v.1.15,2014-01-02 14:17:00,
2014-01-02 06:23:00,59.8,26.6,30.11,West,270,0.0,0.0,28,0.00,,,0.00,Wunderground v.1.15,2014-01-02 14:23:00,
2014-01-02 06:28:00,59.0,25.9,30.11,West,266,0.0,0.0,28,0.00,,,0.00,Wunderground v.1.15,2014-01-02 14:28:00,
2014-01-02 06:33:00,58.5,25.5,30.11,West,277,0.0,5.0,28,0.00,,,0.00,Wunderground v.1.15,2014-01-02 14:33:00,
2014-01-02 06:38:00,58.3,26.1,30.11,WSW,252,0.0,5.0,29,0.00,,,0.00,Wunderground v.1.15,2014-01-02 14:38:00,
2014-01-02 06:43:00,58.4,26.2,30.11,NE,40,1.0,5.0,29,0.00,,,0.00,Wunderground v.1.15,2014-01-02 14:43:00,
2014-01-02 06:49:00,59.2,25.2,30.11,WNW,301,0.0,5.0,27,0.00,,,0.00,Wunderground v.1.15,2014-01-02 14:49:00,
2014-01-02 06:54:00,59.6,25.5,30.11,East,79,0.0,5.0,27,0.00,,,0.00,Wunderground v.1.15,2014-01-02 14:54:00,
2014-01-02 06:59:00,60.0,25.0,30.11,NW,326,0.0,5.0,26,0.00,,,0.00,Wunderground v.1.15,2014-01-02 14:59:00,
2014-01-02 07:04:00,60.1,26.0,30.11,WSW,249,0.0,0.0,27,0.00,,,0.00,Wunderground v.1.15,2014-01-02 15:04:00,
2014-01-02 07:09:00,59.7,26.5,30.11,WSW,255,0.0,0.0,28,0.00,,,0.00,Wunderground v.1.15,2014-01-02 15:09:00,
2014-01-02 07:15:00,59.1,26.0,30.11,ESE,107,0.0,0.0,28,0.00,,,0.00,Wunderground v.1.15,2014-01-02 15:15:00,
2014-01-02 07:20:00,58.8,26.6,30.11,ENE,63,0.0,0.0,29,0.00,,,0.00,Wunderground v.1.15,2014-01-02 15:20:00,
2014-01-02 07:25:00,58.6,26.4,30.11,NNW,336,0.0,3.0,29,0.00,,,0.00,Wunderground v.1.15,2014-01-02 15:25:00,
2014-01-02 07:30:00,58.4,26.2,30.11,NW,319,0.0,0.0,29,0.00,,,0.00,Wunderground v.1.15,2014-01-02 15:30:00,
2014-01-02 07:35:00,58.5,27.1,30.11,NE,45,0.0,2.0,30,0.00,,,0.00,Wunderground v.1.15,2014-01-02 15:35:00,
2014-01-02 07:41:00,58.7,25.6,30.11,NNE,18,0.0,2.0,28,0.00,,,0.00,Wunderground v.1.15,2014-01-02 15:41:00,
2014-01-02 07:46:00,59.3,26.2,30.11,SE,145,0.0,2.0,28,0.00,,,0.00,Wunderground v.1.15,2014-01-02 15:46:00,
2014-01-02 07:51:00,60.2,26.9,30.11,SE,145,0.0,2.0,28,0.00,,,0.00,Wunderground v.1.15,2014-01-02 15:51:00,
2014-01-02 07:56:00,60.3,27.0,30.11,ESE,111,0.0,2.0,28,0.00,,,0.00,Wunderground v.1.15,2014-01-02 15:56:00,
2014-01-02 08:01:00,60.1,26.9,30.12,ESE,111,0.0,0.0,28,0.00,,,0.00,Wunderground v.1.15,2014-01-02 16:01:00,
2014-01-02 08:07:00,59.8,28.3,30.12,ESE,111,0.0,0.0,30,0.00,,,0.00,Wunderground v.1.15,2014-01-02 16:07:00,
2014-01-02 08:12:00,59.4,27.9,30.12,ESE,112,0.0,0.0,30,0.00,,,0.00,Wunderground v.1.15,2014-01-02 16:12:00,
2014-01-02 08:17:00,59.0,29.2,30.12,West,264,0.0,0.0,32,0.00,,,0.00,Wunderground v.1.15,2014-01-02 16:17:00,
2014-01-02 08:22:00,58.7,29.6,30.12,West,264,0.0,0.0,33,0.00,,,0.00,Wunderground v.1.15,2014-01-02 16:22:00,
2014-01-02 08:27:00,58.4,30.1,30.12,West,259,0.0,0.0,34,0.00,,,0.00,Wunderground v.1.15,2014-01-02 16:27:00,
2014-01-02 08:32:00,58.4,30.1,30.12,West,259,0.0,3.0,34,0.00,,,0.00,Wunderground v.1.15,2014-01-02 16:32:00,
2014-01-02 08:37:00,60.1,29.3,30.12,NNE,12,1.0,4.0,31,0.00,,,0.00,Wunderground v.1.15,2014-01-02 16:37:00,
2014-01-02 08:42:00,62.2,28.7,30.12,ENE,62,1.0,3.0,28,0.00,,,0.00,Wunderground v.1.15,2014-01-02 16:42:00,
2014-01-02 08:47:00,63.7,28.1,30.12,North,359,2.0,3.0,26,0.00,,,0.00,Wunderground v.1.15,2014-01-02 16:47:00,
2014-01-02 08:52:00,64.7,29.0,30.12,NNE,22,2.0,3.0,26,0.00,,,0.00,Wunderground v.1.15,2014-01-02 16:52:00,
2014-01-02 08:57:00,65.2,28.5,30.13,NE,50,2.0,3.0,25,0.00,,,0.00,Wunderground v.1.15,2014-01-02 16:57:00,
2014-01-02 11:54:00,77.4,29.1,30.07,NNE,26,3.0,3.0,17,0.00,,,0.00,Wunderground v.1.15,2014-01-02 19:54:00,
2014-01-02 11:59:00,77.5,29.2,30.07,NNE,21,3.0,5.0,17,0.00,,,0.00,Wunderground v.1.15,2014-01-02 19:59:00,
2014-01-02 12:04:00,77.6,27.8,30.07,East,86,3.0,5.0,16,0.00,,,0.00,Wunderground v.1.15,2014-01-02 20:04:00,
2014-01-02 12:09:00,77.7,27.9,30.07,NNE,12,3.0,7.0,16,0.00,,,0.00,Wunderground v.1.15,2014-01-02 20:09:00,
2014-01-02 16:36:00,67.3,36.4,30.01,SW,224,1.0,1.0,32,0.00,,,0.00,Wunderground v.1.15,2014-01-03 00:36:00,
2014-01-02 16:42:00,67.0,36.1,30.02,SW,229,1.0,2.0,32,0.00,,,0.00,Wunderground v.1.15,2014-01-03 00:42:00,
2014-01-02 16:47:00,66.9,36.1,30.02,WSW,254,1.0,1.0,32,0.00,,,0.00,Wunderground v.1.15,2014-01-03 00:47:00,
2014-01-02 16:52:00,66.6,35.0,30.02,SW,225,1.0,1.0,31,0.00,,,0.00,Wunderground v.1.15,2014-01-03 00:52:00,
2014-01-02 16:57:00,66.2,33.8,30.02,SW,226,0.0,0.0,30,0.00,,,0.00,Wunderground v.1.15,2014-01-03 00:57:00,
2014-01-02 17:02:00,65.9,32.7,30.02,SW,231,0.0,1.0,29,0.00,,,0.00,Wunderground v.1.15,2014-01-03 01:02:00,
2014-01-02 17:07:00,65.5,32.4,30.02,ESE,117,1.0,2.0,29,0.00,,,0.00,Wunderground v.1.15,2014-01-03 01:07:00,
2014-01-02 17:12:00,65.0,34.4,30.02,SW,231,1.0,2.0,32,0.00,,,0.00,Wunderground v.1.15,2014-01-03 01:12:00,